createdAt,value
2023-03-15T00:02:25.523Z,43.54
2023-03-15T00:04:58.387Z,43.59
2023-03-15T00:07:31.702Z,43.59
2023-03-15T00:10:05.566Z,43.59
2023-03-15T00:12:38.707Z,43.57
2023-03-15T00:15:12.610Z,43.59
2023-03-15T00:17:45.375Z,43.62
2023-03-15T00:20:18.298Z,43.66
2023-03-15T00:22:51.533Z,43.75
2023-03-15T00:25:24.606Z,43.75
2023-03-15T00:27:57.552Z,43.75
2023-03-15T00:30:30.582Z,43.80
2023-03-15T00:33:03.703Z,43.87
2023-03-15T00:35:36.653Z,43.85
2023-03-15T00:38:09.408Z,43.80
2023-03-15T00:40:42.658Z,43.80
2023-03-15T00:43:15.620Z,43.81
2023-03-15T00:45:48.597Z,43.79
2023-03-15T00:48:21.379Z,43.81
2023-03-15T00:50:54.647Z,43.86
2023-03-15T00:53:27.717Z,43.81
2023-03-15T00:56:00.473Z,43.82
2023-03-15T00:58:33.426Z,43.86
2023-03-15T01:01:06.779Z,43.82
2023-03-15T01:03:40.632Z,43.84
2023-03-15T01:06:13.689Z,43.77
2023-03-15T01:08:46.670Z,43.79
2023-03-15T01:11:19.633Z,43.78
2023-03-15T01:13:52.350Z,43.77
2023-03-15T01:16:25.492Z,43.76
2023-03-15T01:18:58.578Z,43.78
2023-03-15T01:21:31.742Z,43.77
2023-03-15T01:24:04.741Z,43.77
2023-03-15T01:26:37.488Z,43.83
2023-03-15T01:29:10.452Z,43.87
2023-03-15T01:31:43.588Z,43.89
2023-03-15T01:34:16.730Z,43.96
2023-03-15T01:36:49.950Z,43.99
2023-03-15T01:39:23.357Z,44.03
2023-03-15T01:41:56.681Z,44.08
2023-03-15T01:44:29.835Z,44.08
2023-03-15T01:47:03.851Z,44.04
2023-03-15T01:49:37.827Z,44.06
2023-03-15T01:52:11.724Z,44.13
2023-03-15T01:54:44.521Z,44.20
2023-03-15T01:57:17.867Z,44.10
2023-03-15T01:59:51.788Z,44.08
2023-03-15T02:02:24.709Z,44.09
2023-03-15T02:04:57.671Z,44.04
2023-03-15T02:07:30.728Z,44.08
2023-03-15T02:10:03.578Z,44.04
2023-03-15T02:12:36.860Z,44.02
2023-03-15T02:15:09.597Z,44.04
2023-03-15T02:17:42.893Z,44.05
2023-03-15T02:20:16.860Z,44.01
2023-03-15T02:22:49.825Z,44.01
2023-03-15T02:25:22.632Z,44.01
2023-03-15T02:27:55.732Z,44.01
2023-03-15T02:30:28.870Z,43.98
2023-03-15T02:33:01.723Z,43.92
2023-03-15T02:35:34.896Z,43.96
2023-03-15T02:38:07.828Z,43.95
2023-03-15T02:40:43.985Z,43.93
2023-03-15T02:43:17.765Z,43.92
2023-03-15T02:45:50.853Z,43.88
2023-03-15T02:48:23.781Z,43.87
2023-03-15T02:50:56.490Z,43.88
2023-03-15T02:53:29.858Z,43.93
2023-03-15T02:56:02.817Z,43.95
2023-03-15T02:58:35.590Z,43.97
2023-03-15T03:01:09.065Z,43.95
2023-03-15T03:03:55.422Z,43.98
2023-03-15T03:06:28.822Z,43.98
2023-03-15T03:09:01.816Z,43.97
2023-03-15T03:11:34.937Z,44.02
2023-03-15T03:14:08.937Z,44.03
2023-03-15T03:16:41.880Z,44.06
2023-03-15T03:19:14.891Z,44.09
2023-03-15T03:21:47.855Z,44.13
2023-03-15T03:24:20.857Z,44.08
2023-03-15T03:26:53.965Z,44.08
2023-03-15T03:29:26.698Z,44.06
2023-03-15T03:31:59.873Z,44.03
2023-03-15T03:34:32.996Z,44.00
2023-03-15T03:37:06.862Z,44.10
2023-03-15T03:39:39.945Z,44.04
2023-03-15T03:42:12.528Z,43.99
2023-03-15T03:44:45.885Z,44.04
2023-03-15T03:47:18.873Z,44.05
2023-03-15T03:49:51.690Z,44.08
2023-03-15T03:52:24.558Z,44.03
2023-03-15T03:54:57.766Z,44.04
2023-03-15T03:57:30.700Z,44.03
2023-03-15T04:00:03.578Z,44.03
2023-03-15T04:02:37.255Z,44.02
2023-03-15T04:05:14.519Z,44.06
2023-03-15T04:07:48.079Z,44.05
2023-03-15T04:10:21.713Z,44.04
2023-03-15T04:12:54.741Z,44.04
2023-03-15T04:15:28.030Z,44.00
2023-03-15T04:18:00.617Z,44.00
2023-03-15T04:20:33.962Z,43.97
2023-03-15T04:23:06.890Z,43.95
2023-03-15T04:25:40.143Z,43.97
2023-03-15T04:28:13.954Z,43.93
2023-03-15T04:30:52.767Z,43.92
2023-03-15T04:33:25.767Z,43.88
2023-03-15T04:35:59.079Z,43.91
2023-03-15T04:38:31.780Z,43.90
2023-03-15T04:41:04.669Z,43.88
2023-03-15T04:43:38.036Z,43.89
2023-03-15T04:46:10.660Z,43.87
2023-03-15T04:48:43.949Z,43.88
2023-03-15T04:51:16.936Z,43.86
2023-03-15T04:53:49.794Z,43.86
2023-03-15T04:56:26.715Z,43.86
2023-03-15T04:58:59.721Z,43.83
2023-03-15T05:01:32.881Z,43.83
2023-03-15T05:04:05.736Z,43.87
2023-03-15T05:06:38.825Z,43.85
2023-03-15T05:09:11.900Z,43.84
2023-03-15T05:11:45.074Z,43.85
2023-03-15T05:14:17.693Z,43.83
2023-03-15T05:16:50.686Z,43.86
2023-03-15T05:19:23.731Z,43.83
2023-03-15T05:21:56.703Z,43.84
2023-03-15T05:24:30.173Z,43.83
2023-03-15T05:27:04.039Z,43.85
2023-03-15T05:29:36.913Z,43.97
2023-03-15T05:32:10.040Z,43.99
2023-03-15T05:34:43.050Z,44.08
2023-03-15T05:37:16.038Z,44.07
2023-03-15T05:39:48.945Z,44.03
2023-03-15T05:42:21.773Z,44.00
2023-03-15T05:44:54.735Z,43.99
2023-03-15T05:47:27.856Z,44.00
2023-03-15T05:50:00.851Z,43.96
2023-03-15T05:52:34.013Z,43.96
2023-03-15T05:55:07.055Z,43.96
2023-03-15T05:57:40.121Z,43.96
2023-03-15T06:00:12.788Z,43.93
2023-03-15T06:02:45.914Z,43.92
2023-03-15T06:05:19.034Z,43.97
2023-03-15T06:07:53.938Z,43.96
2023-03-15T06:10:26.838Z,43.95
2023-03-15T06:12:59.916Z,43.98
2023-03-15T06:15:32.872Z,43.77
2023-03-15T06:18:05.891Z,43.86
2023-03-15T06:20:38.809Z,43.85
2023-03-15T06:23:11.858Z,43.88
2023-03-15T06:25:45.110Z,43.88
2023-03-15T06:28:18.146Z,43.88
2023-03-15T06:30:50.913Z,43.88
2023-03-15T06:33:24.124Z,43.86
2023-03-15T06:35:56.912Z,43.86
2023-03-15T06:38:30.008Z,43.86
2023-03-15T06:41:02.869Z,43.87
2023-03-15T06:43:37.236Z,43.88
2023-03-15T06:46:10.198Z,43.84
2023-03-15T06:48:43.170Z,43.87
2023-03-15T06:51:16.141Z,43.85
2023-03-15T06:53:49.176Z,43.84
2023-03-15T06:56:21.959Z,43.84
2023-03-15T06:58:55.167Z,43.82
2023-03-15T07:01:28.398Z,43.80
2023-03-15T07:04:02.194Z,43.82
2023-03-15T07:06:35.238Z,43.82
2023-03-15T07:09:08.114Z,43.80
2023-03-15T07:11:41.238Z,43.79
2023-03-15T07:14:13.913Z,43.80
2023-03-15T07:16:47.357Z,43.82
2023-03-15T07:19:21.158Z,43.77
2023-03-15T07:21:54.304Z,43.79
2023-03-15T07:24:27.001Z,43.78
2023-03-15T07:27:00.214Z,43.78
2023-03-15T07:29:33.416Z,43.78
2023-03-15T07:32:07.104Z,43.78
2023-03-15T07:34:40.274Z,43.76
2023-03-15T07:37:13.217Z,43.76
2023-03-15T07:39:46.217Z,42.73
2023-03-15T07:42:19.233Z,42.42
2023-03-15T07:44:51.934Z,42.21
2023-03-15T07:47:25.222Z,42.15
2023-03-15T07:49:58.262Z,42.12
2023-03-15T07:52:31.187Z,41.96
2023-03-15T07:55:04.085Z,41.59
2023-03-15T07:57:37.257Z,41.24
2023-03-15T08:00:09.950Z,41.68
2023-03-15T08:02:43.273Z,41.75
2023-03-15T08:05:16.236Z,41.55
2023-03-15T08:07:49.304Z,41.48
2023-03-15T08:10:22.057Z,41.37
2023-03-15T08:12:55.067Z,40.89
2023-03-15T08:15:42.310Z,40.88
2023-03-15T08:18:14.979Z,40.74
2023-03-15T08:20:48.152Z,41.05
2023-03-15T08:23:21.049Z,41.41
2023-03-15T08:25:54.377Z,41.35
2023-03-15T08:28:27.296Z,41.29
2023-03-15T08:31:00.340Z,41.48
2023-03-15T08:33:33.351Z,41.52
2023-03-15T08:36:06.608Z,41.50
2023-03-15T08:38:40.438Z,41.70
2023-03-15T08:41:16.272Z,41.79
2023-03-15T08:43:49.384Z,41.85
2023-03-15T08:46:22.422Z,41.93
2023-03-15T08:48:55.342Z,41.94
2023-03-15T08:51:34.239Z,42.00
2023-03-15T08:54:07.340Z,42.04
2023-03-15T08:56:40.348Z,42.04
2023-03-15T08:59:19.506Z,42.06
2023-03-15T09:01:46.510Z,42.03
2023-03-15T09:04:20.417Z,42.05
2023-03-15T09:06:53.326Z,42.10
2023-03-15T09:09:26.351Z,42.11
2023-03-15T09:12:03.248Z,42.18
2023-03-15T09:14:36.328Z,42.19
2023-03-15T09:17:09.530Z,42.17
2023-03-15T09:19:42.405Z,42.19
2023-03-15T09:22:23.926Z,42.17
2023-03-15T09:24:49.825Z,42.18
2023-03-15T09:27:21.345Z,42.26
2023-03-15T09:29:54.299Z,42.33
2023-03-15T09:32:27.478Z,42.32
2023-03-15T09:35:00.452Z,42.30
2023-03-15T09:37:33.455Z,42.29
2023-03-15T09:40:06.399Z,42.31
2023-03-15T09:42:39.487Z,42.32
2023-03-15T09:45:12.448Z,42.25
2023-03-15T09:47:45.672Z,41.84
2023-03-15T09:50:18.094Z,41.75
2023-03-15T09:52:51.113Z,41.63
2023-03-15T09:55:24.112Z,41.30
2023-03-15T09:58:03.120Z,41.38
2023-03-15T10:00:36.493Z,41.46
2023-03-15T10:03:09.517Z,41.53
2023-03-15T10:05:42.473Z,41.53
2023-03-15T10:08:15.639Z,41.51
2023-03-15T10:10:49.473Z,41.60
2023-03-15T10:13:36.446Z,41.42
2023-03-15T10:16:09.581Z,41.49
2023-03-15T10:18:42.542Z,41.53
2023-03-15T10:21:15.370Z,41.54
2023-03-15T10:23:48.376Z,41.54
2023-03-15T10:26:21.430Z,41.49
2023-03-15T10:28:54.479Z,41.52
2023-03-15T10:31:36.890Z,41.50
2023-03-15T10:34:00.427Z,41.52
2023-03-15T10:36:33.349Z,41.51
2023-03-15T10:39:06.772Z,41.50
2023-03-15T10:41:40.510Z,41.53
2023-03-15T10:44:13.527Z,41.52
2023-03-15T10:46:46.647Z,41.52
2023-03-15T10:49:19.274Z,41.52
2023-03-15T10:51:52.215Z,41.53
2023-03-15T10:54:25.248Z,41.54
2023-03-15T10:56:58.524Z,41.50
2023-03-15T10:59:31.659Z,41.49
2023-03-15T11:02:05.780Z,41.50
2023-03-15T11:04:39.531Z,41.51
2023-03-15T11:07:12.499Z,41.52
2023-03-15T11:09:45.548Z,41.50
2023-03-15T11:12:19.549Z,41.51
2023-03-15T11:14:51.545Z,41.55
2023-03-15T11:17:24.508Z,41.55
2023-03-15T11:19:57.483Z,41.54
2023-03-15T11:22:30.632Z,41.53
2023-03-15T11:25:03.678Z,41.56
2023-03-15T11:27:36.543Z,41.55
2023-03-15T11:30:09.351Z,41.53
2023-03-15T11:32:42.389Z,41.56
2023-03-15T11:35:15.672Z,41.55
2023-03-15T11:37:48.592Z,41.56
2023-03-15T11:40:21.536Z,41.55
2023-03-15T11:42:54.680Z,41.56
2023-03-15T11:45:27.700Z,41.57
2023-03-15T11:48:00.648Z,41.56
2023-03-15T11:50:33.673Z,41.56
2023-03-15T11:53:06.708Z,41.54
2023-03-15T11:55:39.605Z,41.57
2023-03-15T11:58:12.403Z,41.53
2023-03-15T12:00:45.467Z,41.58
2023-03-15T12:06:08.391Z,41.56
2023-03-15T12:08:41.682Z,41.55
2023-03-15T12:11:14.637Z,41.56
2023-03-15T12:13:47.606Z,41.56
2023-03-15T12:16:20.643Z,41.58
2023-03-15T12:18:53.712Z,41.55
2023-03-15T12:21:26.687Z,41.55
2023-03-15T12:23:59.345Z,41.55
2023-03-15T12:26:32.348Z,41.54
2023-03-15T12:29:05.386Z,41.53
2023-03-15T12:31:38.476Z,41.54
2023-03-15T12:34:11.398Z,41.52
2023-03-15T12:36:44.531Z,41.52
2023-03-15T12:39:17.404Z,41.54
2023-03-15T12:41:50.530Z,41.55
2023-03-15T12:44:23.359Z,41.53
2023-03-15T12:46:56.408Z,41.56
2023-03-15T12:49:29.409Z,41.53
2023-03-15T12:52:02.531Z,41.50
2023-03-15T12:54:35.479Z,41.55
2023-03-15T12:57:08.496Z,41.61
2023-03-15T12:59:41.576Z,41.55
2023-03-15T13:02:14.561Z,41.51
2023-03-15T13:04:47.577Z,41.55
2023-03-15T13:07:23.348Z,41.50
2023-03-15T13:09:56.584Z,41.46
2023-03-15T13:12:29.662Z,41.30
2023-03-15T13:15:02.611Z,41.31
2023-03-15T13:17:35.642Z,41.32
2023-03-15T13:20:08.396Z,41.25
2023-03-15T13:22:50.026Z,41.26
2023-03-15T13:25:14.651Z,41.29
2023-03-15T13:27:47.581Z,41.27
2023-03-15T13:30:20.745Z,41.30
2023-03-15T13:32:53.968Z,41.27
2023-03-15T13:35:27.826Z,41.26
2023-03-15T13:38:00.633Z,41.33
2023-03-15T13:40:33.747Z,41.32
2023-03-15T13:43:06.956Z,41.30
2023-03-15T13:45:40.757Z,41.35
2023-03-15T13:48:13.843Z,41.36
2023-03-15T13:50:46.884Z,41.37
2023-03-15T13:53:19.781Z,41.36
2023-03-15T13:55:52.482Z,41.33
2023-03-15T13:58:25.761Z,41.31
2023-03-15T14:00:58.938Z,41.17
2023-03-15T14:03:32.756Z,41.25
2023-03-15T14:06:06.016Z,41.14
2023-03-15T14:08:39.846Z,41.09
2023-03-15T14:11:12.600Z,41.01
2023-03-15T14:13:45.840Z,41.08
2023-03-15T14:16:18.856Z,41.11
2023-03-15T14:18:51.774Z,41.17
2023-03-15T14:21:24.849Z,41.14
2023-03-15T14:23:57.557Z,41.08
2023-03-15T14:26:30.545Z,41.04
2023-03-15T14:29:03.935Z,41.20
2023-03-15T14:31:36.843Z,41.17
2023-03-15T14:34:09.925Z,41.22
2023-03-15T14:36:42.638Z,41.30
2023-03-15T14:39:15.612Z,41.24
2023-03-15T14:41:48.647Z,41.26
2023-03-15T14:44:21.836Z,41.13
2023-03-15T14:47:01.018Z,41.11
2023-03-15T14:49:34.855Z,41.00
2023-03-15T14:52:07.956Z,40.94
2023-03-15T14:54:41.158Z,40.92
2023-03-15T14:57:14.886Z,40.88
2023-03-15T14:59:47.890Z,40.89
2023-03-15T15:02:20.936Z,40.85
2023-03-15T15:04:53.875Z,40.83
2023-03-15T15:07:26.888Z,40.83
2023-03-15T15:09:59.766Z,40.81
2023-03-15T15:12:32.920Z,40.76
2023-03-15T15:15:05.742Z,40.80
2023-03-15T15:17:38.621Z,40.77
2023-03-15T15:20:14.778Z,40.74
2023-03-15T15:22:47.801Z,40.75
2023-03-15T15:25:20.952Z,40.69
2023-03-15T15:27:53.988Z,40.71
2023-03-15T15:30:26.638Z,40.69
2023-03-15T15:32:59.764Z,40.71
2023-03-15T15:35:32.683Z,40.69
2023-03-15T15:38:05.749Z,40.63
2023-03-15T15:40:38.701Z,40.68
2023-03-15T15:43:11.713Z,40.66
2023-03-15T15:45:44.970Z,40.67
2023-03-15T15:48:17.747Z,40.66
2023-03-15T15:50:50.759Z,40.63
2023-03-15T15:53:23.641Z,40.66
2023-03-15T15:55:56.831Z,40.59
2023-03-15T15:58:29.906Z,40.61
2023-03-15T16:01:02.741Z,40.62
2023-03-15T16:03:35.688Z,40.61
2023-03-15T16:06:08.964Z,40.63
2023-03-15T16:08:41.690Z,40.66
2023-03-15T16:11:14.871Z,40.64
2023-03-15T16:13:47.961Z,40.69
2023-03-15T16:16:23.585Z,40.71
2023-03-15T16:18:56.692Z,40.70
2023-03-15T16:21:29.792Z,40.76
2023-03-15T16:24:02.960Z,40.78
2023-03-15T16:26:35.726Z,40.75
2023-03-15T16:29:08.862Z,40.75
2023-03-15T16:31:41.720Z,40.73
2023-03-15T16:34:14.735Z,40.75
2023-03-15T16:36:49.612Z,40.71
2023-03-15T16:39:20.735Z,40.74
2023-03-15T16:41:54.059Z,40.76
2023-03-15T16:44:26.848Z,40.72
2023-03-15T16:46:59.901Z,40.77
2023-03-15T16:49:33.038Z,40.68
2023-03-15T16:52:06.041Z,40.72
2023-03-15T16:54:41.584Z,40.72
2023-03-15T16:57:11.901Z,40.80
2023-03-15T16:59:44.749Z,40.78
2023-03-15T17:02:17.779Z,40.88
2023-03-15T17:04:51.114Z,40.91
2023-03-15T17:07:23.802Z,40.96
2023-03-15T17:10:10.872Z,41.00
2023-03-15T17:12:44.078Z,41.05
2023-03-15T17:15:17.068Z,41.08
2023-03-15T17:17:50.078Z,41.09
2023-03-15T17:20:23.058Z,41.11
2023-03-15T17:22:56.098Z,41.11
2023-03-15T17:25:28.886Z,41.19
2023-03-15T17:28:01.960Z,41.10
2023-03-15T17:30:35.096Z,41.19
2023-03-15T17:33:08.012Z,41.18
2023-03-15T17:35:41.142Z,41.23
2023-03-15T17:38:14.190Z,41.22
2023-03-15T17:40:47.178Z,41.21
2023-03-15T17:43:20.111Z,41.32
2023-03-15T17:46:01.116Z,41.40
2023-03-15T17:48:34.140Z,41.36
2023-03-15T17:51:07.026Z,41.31
2023-03-15T17:53:39.824Z,41.30
2023-03-15T17:56:13.165Z,41.33
2023-03-15T17:58:47.896Z,41.36
2023-03-15T18:01:20.977Z,41.39
2023-03-15T18:03:53.938Z,41.42
2023-03-15T18:06:27.156Z,41.45
2023-03-15T18:09:00.011Z,41.38
2023-03-15T18:11:33.147Z,41.48
2023-03-15T18:14:06.420Z,41.46
2023-03-15T18:16:39.968Z,41.46
2023-03-15T18:19:13.182Z,41.31
2023-03-15T18:21:45.872Z,41.29
2023-03-15T18:24:18.908Z,41.34
2023-03-15T18:26:51.873Z,41.30
2023-03-15T18:29:25.012Z,41.36
2023-03-15T18:31:57.991Z,41.37
2023-03-15T18:34:30.916Z,41.26
2023-03-15T18:37:04.051Z,41.33
2023-03-15T18:39:36.940Z,41.31
2023-03-15T18:42:10.257Z,41.30
2023-03-15T18:44:43.212Z,41.30
2023-03-15T18:47:15.895Z,41.25
2023-03-15T18:49:51.204Z,41.27
2023-03-15T18:52:22.211Z,41.21
2023-03-15T18:55:08.820Z,41.28
2023-03-15T18:57:42.206Z,41.25
2023-03-15T19:00:14.972Z,41.27
2023-03-15T19:02:48.143Z,41.18
2023-03-15T19:05:21.189Z,41.25
2023-03-15T19:07:54.231Z,41.30
2023-03-15T19:10:27.212Z,41.27
2023-03-15T19:13:01.231Z,41.25
2023-03-15T19:15:34.081Z,41.19
2023-03-15T19:18:06.970Z,41.14
2023-03-15T19:23:16.955Z,41.09
2023-03-15T19:25:49.975Z,41.08
2023-03-15T19:28:22.994Z,40.94
2023-03-15T19:30:56.238Z,40.90
2023-03-15T19:33:29.204Z,40.93
2023-03-15T19:36:02.002Z,40.88
2023-03-15T19:38:35.143Z,41.06
2023-03-15T19:41:10.207Z,41.12
2023-03-15T19:43:41.189Z,41.27
2023-03-15T19:46:14.255Z,41.29
2023-03-15T19:48:47.029Z,41.43
2023-03-15T19:51:20.255Z,41.44
2023-03-15T19:53:52.999Z,41.40
2023-03-15T19:56:26.369Z,41.40
2023-03-15T19:58:59.003Z,41.39
2023-03-15T20:01:32.251Z,41.36
2023-03-15T20:04:05.176Z,41.43
2023-03-15T20:06:38.014Z,41.43
2023-03-15T20:09:11.192Z,41.38
2023-03-15T20:11:44.046Z,41.40
2023-03-15T20:14:17.073Z,41.40
2023-03-15T20:16:50.106Z,41.42
2023-03-15T20:19:23.052Z,41.34
2023-03-15T20:21:56.065Z,41.31
2023-03-15T20:24:29.197Z,41.30
2023-03-15T20:27:02.090Z,41.30
2023-03-15T20:29:35.436Z,41.33
2023-03-15T20:32:08.215Z,41.31
2023-03-15T20:34:41.433Z,41.24
2023-03-15T20:37:14.356Z,41.41
2023-03-15T20:39:47.363Z,41.30
2023-03-15T20:42:20.348Z,41.31
2023-03-15T20:44:53.071Z,41.33
2023-03-15T20:47:26.452Z,41.34
2023-03-15T20:49:59.368Z,41.29
2023-03-15T20:52:32.096Z,41.32
2023-03-15T20:55:08.062Z,41.27
2023-03-15T20:57:41.110Z,41.25
2023-03-15T21:00:14.405Z,41.19
2023-03-15T21:02:47.155Z,41.29
2023-03-15T21:05:20.098Z,41.29
2023-03-15T21:07:55.021Z,41.32
2023-03-15T21:10:26.490Z,41.21
2023-03-15T21:12:59.390Z,41.22
2023-03-15T21:15:32.551Z,41.27
2023-03-15T21:18:06.372Z,41.25
2023-03-15T21:20:42.374Z,41.23
2023-03-15T21:23:21.044Z,41.19
2023-03-15T21:25:54.123Z,41.25
2023-03-15T21:28:27.636Z,41.13
2023-03-15T21:31:01.518Z,41.16
2023-03-15T21:33:34.439Z,41.17
2023-03-15T21:36:07.461Z,41.15
2023-03-15T21:38:40.465Z,41.21
2023-03-15T21:41:13.464Z,41.12
2023-03-15T21:43:46.497Z,41.24
2023-03-15T21:46:19.456Z,41.16
2023-03-15T21:48:52.464Z,41.16
2023-03-15T21:51:25.464Z,41.14
2023-03-15T21:53:58.439Z,41.13
2023-03-15T21:56:31.463Z,41.13
2023-03-15T21:59:04.435Z,41.07
2023-03-15T22:01:37.660Z,41.12
2023-03-15T22:04:10.649Z,41.11
2023-03-15T22:06:43.548Z,41.10
2023-03-15T22:09:16.486Z,41.03
2023-03-15T22:11:49.732Z,41.13
2023-03-15T22:14:23.474Z,41.14
2023-03-15T22:16:56.525Z,41.12
2023-03-15T22:19:29.635Z,41.04
2023-03-15T22:22:02.669Z,41.06
2023-03-15T22:24:36.598Z,41.08
2023-03-15T22:27:09.471Z,41.12
2023-03-15T22:29:42.567Z,41.08
2023-03-15T22:32:15.447Z,41.05
2023-03-15T22:34:48.690Z,41.11
2023-03-15T22:37:22.498Z,41.09
2023-03-15T22:39:55.507Z,40.99
2023-03-15T22:42:28.550Z,41.10
2023-03-15T22:45:01.508Z,41.08
2023-03-15T22:47:34.533Z,41.08
2023-03-15T22:50:07.558Z,41.05
2023-03-15T22:52:40.749Z,41.03
2023-03-15T22:55:14.615Z,41.06
2023-03-15T22:57:47.696Z,41.10
2023-03-15T23:00:20.566Z,41.00
2023-03-15T23:02:57.452Z,41.03
2023-03-15T23:05:30.616Z,41.01
2023-03-15T23:08:03.553Z,41.09
2023-03-15T23:10:36.629Z,41.03
2023-03-15T23:13:09.612Z,41.05
2023-03-15T23:15:42.684Z,40.98
2023-03-15T23:18:15.536Z,41.10
2023-03-15T23:20:48.801Z,41.03
2023-03-15T23:23:22.606Z,41.04
2023-03-15T23:25:55.612Z,41.06
2023-03-15T23:28:28.839Z,41.03
2023-03-15T23:31:02.704Z,41.00
2023-03-15T23:33:35.697Z,40.98
2023-03-15T23:36:08.629Z,41.00
2023-03-15T23:38:41.805Z,41.04
2023-03-15T23:41:15.312Z,41.03
2023-03-15T23:43:48.692Z,41.07
2023-03-15T23:46:21.737Z,41.00
2023-03-15T23:48:54.618Z,41.02
2023-03-15T23:51:27.719Z,40.98
2023-03-15T23:54:00.364Z,40.96
2023-03-15T23:56:33.885Z,40.98
2023-03-15T23:59:07.735Z,40.96
